{
  "fields": [{"type":"int","id":"_id"},{"info":{"type_override":"text","notes":"Hora UTC de lectura de los datos (AAAA-MM-DD HH:mm:SS)(+1 para CET invierno, +2 para CET verano)","label":"date"},"type":"text","id":"TIMESTAMP"},{"info":{"type_override":"text","notes":"Record Number - identificador del registro","label":"int"},"type":"text","id":"RECORD"},{"info":{"type_override":"text","notes":"Velocidad media del viento en el periodo de 10 minutos leído","label":"float"},"type":"text","id":"VV_S_WVT"},{"info":{"type_override":"text","notes":"Dirección media del viento en el periodo de 10 minutos leído","label":"float"},"type":"text","id":"DV_D1_WVT"},{"info":{"type_override":"text","notes":"Velocidad máxima del viento en el periodo de 10 minutos leído","label":"float"},"type":"text","id":"VV10m3Seg_Max"},{"info":{"type_override":"text","notes":"Dirección de la racha máxima del viento en el periodo de 10 minutos leído","label":"text"},"type":"text","id":"DV10m3Seg_SMM"},{"info":{"type_override":"text","notes":"Presión atmosférica media en el periodo de 10 minutos leído","label":"text"},"type":"text","id":"PRE_Avg"},{"info":{"type_override":"text","notes":"Temperatura del aire media en el periodo de 10 minutos leído","label":"text"},"type":"text","id":"TEM_Avg"},{"info":{"type_override":"text","notes":"Humedad relativa del aire promedio en el periodo de 10 minutos leído","label":"text"},"type":"text","id":"HUM_Avg"},{"info":{"type_override":"text","notes":"Radiación solar media en el periodo de 10 minutos leído","label":"text"},"type":"text","id":"RAD_Avg"},{"info":{"type_override":"text","notes":"Precipitación acumulada en el periodo de 10 minutos leído","label":"text"},"type":"text","id":"PLU_Tot"}],
  "records": [
    [1669932,"2026-09-01 00:00:00","28144","1.036","327.9","1.47","321.7","NAN","NAN","NAN","NAN","NAN"],
    [1669933,"2026-09-01 00:10:00","28145","0.9009999999999999","294.2","1.405","260.0","NAN","NAN","NAN","NAN","NAN"],
    [1669934,"2026-09-01 00:20:00","28146","0.899","267.6","1.764","238.2","NAN","NAN","NAN","NAN","NAN"],
    [1669935,"2026-09-01 00:30:00","28147","0.987","268.1","1.307","269.9","NAN","NAN","NAN","NAN","NAN"],
    [1669936,"2026-09-01 00:40:00","28148","1.319","267.8","1.601","272.3","NAN","NAN","NAN","NAN","NAN"],
    [1669937,"2026-09-01 00:50:00","28149","1.409","271.1","1.666","273.2","NAN","NAN","NAN","NAN","NAN"],
    [1669938,"2026-09-01 01:00:00","28150","1.824","277.7","2.483","278.8","NAN","NAN","NAN","NAN","NAN"],
    [1669939,"2026-09-01 01:10:00","28151","1.734","273.3","1.993","275.0","NAN","NAN","NAN","NAN","NAN"],
    [1669940,"2026-09-01 01:20:00","28152","1.6","274.2","1.895","266.3","NAN","NAN","NAN","NAN","NAN"],
    [1669941,"2026-09-01 01:30:00","28153","1.611","281.9","2.0909999999999997","289.4","NAN","NAN","NAN","NAN","NAN"],
    [1669942,"2026-09-01 01:40:00","28154","2.156","297.4","2.5810000000000004","294.7","NAN","NAN","NAN","NAN","NAN"],
    [1669943,"2026-09-01 01:50:00","28155","2.073","307.0","2.7110000000000003","308.3","NAN","NAN","NAN","NAN","NAN"],
    [1669944,"2026-09-01 02:00:00","28156","2.395","304.2","2.7769999999999997","303.0","NAN","NAN","NAN","NAN","NAN"],
    [1669945,"2026-09-01 02:10:00","28157","1.8969999999999998","305.7","2.385","291.1","NAN","NAN","NAN","NAN","NAN"],
    [1669946,"2026-09-01 02:20:00","28158","2.012","310.9","2.515","312.0","NAN","NAN","NAN","NAN","NAN"],
    [1669947,"2026-09-01 02:30:00","28159","1.903","317.7","2.319","310.3","NAN","NAN","NAN","NAN","NAN"],
    [1669948,"2026-09-01 02:40:00","28160","1.6280000000000001","303.7","2.156","294.9","NAN","NAN","NAN","NAN","NAN"],
    [1669949,"2026-09-01 02:50:00","28161","2.003","298.8","2.515","296.7","NAN","NAN","NAN","NAN","NAN"],
    [1669950,"2026-09-01 03:00:00","28162","2.35","302.6","2.7769999999999997","306.4","NAN","NAN","NAN","NAN","NAN"],
    [1669951,"2026-09-01 03:10:00","28163","2.416","307.8","2.907","307.2","NAN","NAN","NAN","NAN","NAN"],
    [1669952,"2026-09-01 03:20:00","28164","2.259","303.0","2.7769999999999997","304.4","NAN","NAN","NAN","NAN","NAN"],
    [1669953,"2026-09-01 03:30:00","28165","1.7730000000000001","296.4","2.156","294.7","NAN","NAN","NAN","NAN","NAN"],
    [1669954,"2026-09-01 03:40:00","28166","1.931","310.5","2.221","317.6","NAN","NAN","NAN","NAN","NAN"],
    [1669955,"2026-09-01 03:50:00","28167","1.9369999999999998","304.1","2.287","307.9","NAN","NAN","NAN","NAN","NAN"],
    [1669956,"2026-09-01 04:00:00","28168","1.915","293.7","2.385","297.3","NAN","NAN","NAN","NAN","NAN"],
    [1669957,"2026-09-01 04:10:00","28169","2.123","300.9","2.45","297.2","NAN","NAN","NAN","NAN","NAN"],
    [1669958,"2026-09-01 04:20:00","28170","2.474","301.9","2.907","304.6","NAN","NAN","NAN","NAN","NAN"],
    [1669959,"2026-09-01 04:30:00","28171","2.358","304.5","2.7110000000000003","298.1","NAN","NAN","NAN","NAN","NAN"],
    [1669960,"2026-09-01 04:40:00","28172","2.031","292.3","2.417","304.8","NAN","NAN","NAN","NAN","NAN"],
    [1669961,"2026-09-01 04:50:00","28173","2.14","285.9","2.548","289.5","NAN","NAN","NAN","NAN","NAN"],
    [1669962,"2026-09-01 05:00:00","28174","2.241","288.7","2.5810000000000004","292.1","NAN","NAN","NAN","NAN","NAN"],
    [1669963,"2026-09-01 05:10:00","28175","1.9769999999999999","286.7","2.352","291.7","NAN","NAN","NAN","NAN","NAN"],
    [1669964,"2026-09-01 05:20:00","28176","1.9140000000000001","291.9","2.352","288.1","NAN","NAN","NAN","NAN","NAN"],
    [1669965,"2026-09-01 05:30:00","28177","2.226","299.3","3.234","295.2","NAN","NAN","NAN","NAN","NAN"],
    [1669966,"2026-09-01 05:40:00","28178","2.136","300.7","2.385","298.8","NAN","NAN","NAN","NAN","NAN"],
    [1669967,"2026-09-01 05:50:00","28179","1.959","297.4","2.254","289.0","NAN","NAN","NAN","NAN","NAN"],
    [1669968,"2026-09-01 06:00:00","28180","1.73","286.3","2.0580000000000003","287.3","NAN","NAN","NAN","NAN","NAN"],
    [1669969,"2026-09-01 06:10:00","28181","1.9809999999999999","288.5","2.679","298.9","NAN","NAN","NAN","NAN","NAN"],
    [1669970,"2026-09-01 06:20:00","28182","2.244","296.0","2.515","300.3","NAN","NAN","NAN","NAN","NAN"],
    [1669971,"2026-09-01 06:30:00","28183","2.126","291.8","2.613","292.8","NAN","NAN","NAN","NAN","NAN"],
    [1669972,"2026-09-01 06:40:00","28184","2.171","300.4","2.9730000000000003","295.4","NAN","NAN","NAN","NAN","NAN"],
    [1669973,"2026-09-01 06:50:00","28185","2.015","311.1","2.8089999999999997","306.4","NAN","NAN","NAN","NAN","NAN"],
    [1669974,"2026-09-01 07:00:00","28186","2.0340000000000003","328.2","2.7439999999999998","328.3","NAN","NAN","NAN","NAN","NAN"],
    [1669975,"2026-09-01 07:10:00","28187","1.485","327.6","2.6460000000000004","320.6","NAN","NAN","NAN","NAN","NAN"],
    [1669976,"2026-09-01 07:20:00","28188","1.062","327.7","1.829","338.9","NAN","NAN","NAN","NAN","NAN"],
    [1669977,"2026-09-01 07:30:00","28189","1.2109999999999999","85.2","1.9269999999999998","87.1","NAN","NAN","NAN","NAN","NAN"],
    [1669978,"2026-09-01 07:40:00","28190","1.811","73.16","2.352","61.82","NAN","NAN","NAN","NAN","NAN"],
    [1669979,"2026-09-01 07:50:00","28191","1.5290000000000001","70.76","2.123","65.23","NAN","NAN","NAN","NAN","NAN"],
    [1669980,"2026-09-01 08:00:00","28192","1.43","65.92","1.993","56.65","NAN","NAN","NAN","NAN","NAN"],
    [1669981,"2026-09-01 08:10:00","28193","1.355","76.33","1.7309999999999999","67.52","NAN","NAN","NAN","NAN","NAN"],
    [1669982,"2026-09-01 08:20:00","28194","1.531","98.1","1.96","85.9","NAN","NAN","NAN","NAN","NAN"],
    [1669983,"2026-09-01 08:30:00","28195","1.673","143.7","2.45","149.2","NAN","NAN","NAN","NAN","NAN"],
    [1669984,"2026-09-01 08:40:00","28196","2.158","145.1","2.7110000000000003","135.9","NAN","NAN","NAN","NAN","NAN"],
    [1669985,"2026-09-01 08:50:00","28197","2.102","149.5","2.5810000000000004","150.5","NAN","NAN","NAN","NAN","NAN"],
    [1669986,"2026-09-01 09:00:00","28198","2.259","149.3","2.842","158.3","NAN","NAN","NAN","NAN","NAN"],
    [1669987,"2026-09-01 09:10:00","28199","2.582","155.4","3.299","162.8","NAN","NAN","NAN","NAN","NAN"],
    [1669988,"2026-09-01 09:20:00","28200","2.925","160.0","3.822","160.6","NAN","NAN","NAN","NAN","NAN"],
    [1669989,"2026-09-01 09:30:00","28201","3.81","161.9","4.377","163.5","NAN","NAN","NAN","NAN","NAN"],
    [1669990,"2026-09-01 09:40:00","28202","3.952","167.0","4.541","161.7","NAN","NAN","NAN","NAN","NAN"],
    [1669991,"2026-09-01 09:50:00","28203","3.926","168.8","4.541","172.0","NAN","NAN","NAN","NAN","NAN"],
    [1669992,"2026-09-01 10:00:00","28204","4.393","178.4","5.096","181.6","NAN","NAN","NAN","NAN","NAN"],
    [1669993,"2026-09-01 10:10:00","28205","4.396","184.0","5.129","188.7","NAN","NAN","NAN","NAN","NAN"],
    [1669994,"2026-09-01 10:20:00","28206","4.57","184.2","5.619","189.0","NAN","NAN","NAN","NAN","NAN"],
    [1669995,"2026-09-01 10:30:00","28207","4.963","185.7","5.651","184.1","NAN","NAN","NAN","NAN","NAN"],
    [1669996,"2026-09-01 10:40:00","28208","4.505","186.2","5.586","186.7","NAN","NAN","NAN","NAN","NAN"],
    [1669997,"2026-09-01 10:50:00","28209","4.418","186.5","5.129","186.1","NAN","NAN","NAN","NAN","NAN"],
    [1669998,"2026-09-01 11:00:00","28210","4.72","183.2","5.749","179.7","NAN","NAN","NAN","NAN","NAN"],
    [1669999,"2026-09-01 11:10:00","28211","4.7989999999999995","187.8","5.586","190.8","NAN","NAN","NAN","NAN","NAN"],
    [1670000,"2026-09-01 11:20:00","28212","5.047","185.3","5.815","180.9","NAN","NAN","NAN","NAN","NAN"],
    [1670001,"2026-09-01 11:30:00","28213","5.1","185.5","6.042999999999999","186.2","NAN","NAN","NAN","NAN","NAN"],
    [1670002,"2026-09-01 11:40:00","28214","5.103","189.6","5.847","187.0","NAN","NAN","NAN","NAN","NAN"],
    [1670003,"2026-09-01 11:50:00","28215","4.921","186.4","5.815","184.9","NAN","NAN","NAN","NAN","NAN"],
    [1670004,"2026-09-01 12:00:00","28216","4.564","189.9","5.325","185.8","NAN","NAN","NAN","NAN","NAN"],
    [1670005,"2026-09-01 12:10:00","28217","4.192","185.1","4.998","180.7","NAN","NAN","NAN","NAN","NAN"],
    [1670006,"2026-09-01 12:20:00","28218","4.181","192.5","4.704","190.3","NAN","NAN","NAN","NAN","NAN"],
    [1670007,"2026-09-01 12:30:00","28219","4.398","187.4","5.455","193.9","NAN","NAN","NAN","NAN","NAN"],
    [1670008,"2026-09-01 12:40:00","28220","4.141","185.3","4.802","185.8","NAN","NAN","NAN","NAN","NAN"],
    [1670009,"2026-09-01 12:50:00","28221","4.111000000000001","185.1","4.606","189.6","NAN","NAN","NAN","NAN","NAN"],
    [1670010,"2026-09-01 13:00:00","28222","3.984","187.7","4.475","193.3","NAN","NAN","NAN","NAN","NAN"],
    [1670011,"2026-09-01 13:10:00","28223","3.926","187.9","5.031000000000001","190.9","NAN","NAN","NAN","NAN","NAN"],
    [1670012,"2026-09-01 13:20:00","28224","3.7910000000000004","191.3","4.508","192.2","NAN","NAN","NAN","NAN","NAN"],
    [1670013,"2026-09-01 13:30:00","28225","3.925","189.9","4.4430000000000005","191.0","NAN","NAN","NAN","NAN","NAN"],
    [1670014,"2026-09-01 13:40:00","28226","4.314","185.1","4.835","180.1","NAN","NAN","NAN","NAN","NAN"],
    [1670015,"2026-09-01 13:50:00","28227","3.7260000000000004","182.8","4.638999999999999","189.1","NAN","NAN","NAN","NAN","NAN"],
    [1670016,"2026-09-01 14:00:00","28228","3.7539999999999996","172.8","4.377","178.6","NAN","NAN","NAN","NAN","NAN"],
    [1670017,"2026-09-01 14:10:00","28229","5.101","184.2","6.305","185.9","NAN","NAN","NAN","NAN","NAN"],
    [1670018,"2026-09-01 14:20:00","28230","5.515","190.7","6.239","186.4","NAN","NAN","NAN","NAN","NAN"],
    [1670019,"2026-09-01 14:30:00","28231","5.3660000000000005","194.1","6.501","194.7","NAN","NAN","NAN","NAN","NAN"],
    [1670020,"2026-09-01 14:40:00","28232","5.347","189.8","6.0760000000000005","192.6","NAN","NAN","NAN","NAN","NAN"],
    [1670021,"2026-09-01 14:50:00","28233","5.487","190.1","6.599","191.4","NAN","NAN","NAN","NAN","NAN"],
    [1670022,"2026-09-01 15:00:00","28234","4.613","185.5","5.782","188.7","NAN","NAN","NAN","NAN","NAN"],
    [1670023,"2026-09-01 15:10:00","28235","3.947","180.6","4.573","189.5","NAN","NAN","NAN","NAN","NAN"],
    [1670024,"2026-09-01 15:20:00","28236","3.61","186.8","4.41","184.0","NAN","NAN","NAN","NAN","NAN"],
    [1670025,"2026-09-01 15:30:00","28237","4.06","189.2","4.835","199.3","NAN","NAN","NAN","NAN","NAN"],
    [1670026,"2026-09-01 15:40:00","28238","4.202","192.6","4.998","193.0","NAN","NAN","NAN","NAN","NAN"],
    [1670027,"2026-09-01 15:50:00","28239","3.763","188.9","4.508","191.5","NAN","NAN","NAN","NAN","NAN"],
    [1670028,"2026-09-01 16:00:00","28240","4.378","192.7","5.031000000000001","189.7","NAN","NAN","NAN","NAN","NAN"],
    [1670029,"2026-09-01 16:10:00","28241","4.361000000000001","193.4","4.933","189.9","NAN","NAN","NAN","NAN","NAN"],
    [1670030,"2026-09-01 16:20:00","28242","3.645","200.0","4.149","201.0","NAN","NAN","NAN","NAN","NAN"],
    [1670031,"2026-09-01 16:30:00","28243","3.188","196.1","3.855","200.7","NAN","NAN","NAN","NAN","NAN"],
    [1670032,"2026-09-01 16:40:00","28244","2.5069999999999997","186.8","2.875","185.5","NAN","NAN","NAN","NAN","NAN"],
    [1670033,"2026-09-01 16:50:00","28245","3.2439999999999998","192.7","3.7239999999999998","195.5","NAN","NAN","NAN","NAN","NAN"],
    [1670034,"2026-09-01 17:00:00","28246","3.4189999999999996","205.5","3.822","210.6","NAN","NAN","NAN","NAN","NAN"],
    [1670035,"2026-09-01 17:10:00","28247","3.889","208.4","4.2139999999999995","210.5","NAN","NAN","NAN","NAN","NAN"],
    [1670036,"2026-09-01 17:20:00","28248","4.302","207.3","4.965","204.2","NAN","NAN","NAN","NAN","NAN"],
    [1670037,"2026-09-01 17:30:00","28249","3.761","212.2","4.345","205.5","NAN","NAN","NAN","NAN","NAN"],
    [1670038,"2026-09-01 17:40:00","28250","3.522","215.8","4.377","219.1","NAN","NAN","NAN","NAN","NAN"],
    [1670039,"2026-09-01 17:50:00","28251","3.0639999999999996","213.5","4.377","217.4","NAN","NAN","NAN","NAN","NAN"],
    [1670040,"2026-09-01 18:00:00","28252","1.929","225.6","3.005","224.3","NAN","NAN","NAN","NAN","NAN"],
    [1670041,"2026-09-01 18:10:00","28253","0.46799999999999997","227.1","1.666","221.3","NAN","NAN","NAN","NAN","NAN"],
    [1670042,"2026-09-01 18:20:00","28254","1.653","201.8","2.254","221.3","NAN","NAN","NAN","NAN","NAN"],
    [1670043,"2026-09-01 18:30:00","28255","3.6289999999999996","193.2","4.737","198.8","NAN","NAN","NAN","NAN","NAN"],
    [1670044,"2026-09-01 18:40:00","28256","3.384","197.0","4.247","200.1","NAN","NAN","NAN","NAN","NAN"],
    [1670045,"2026-09-01 18:50:00","28257","3.489","203.6","3.855","203.1","NAN","NAN","NAN","NAN","NAN"],
    [1670046,"2026-09-01 19:00:00","28258","3.3089999999999997","208.1","3.6260000000000003","208.4","NAN","NAN","NAN","NAN","NAN"],
    [1670047,"2026-09-01 19:10:00","28259","3.339","208.4","4.181","205.0","NAN","NAN","NAN","NAN","NAN"],
    [1670048,"2026-09-01 19:20:00","28260","3.9139999999999997","209.8","4.247","204.7","NAN","NAN","NAN","NAN","NAN"],
    [1670049,"2026-09-01 19:30:00","28261","3.6439999999999997","208.8","3.887","206.6","NAN","NAN","NAN","NAN","NAN"],
    [1670050,"2026-09-01 19:40:00","28262","3.5239999999999996","214.4","4.377","209.5","NAN","NAN","NAN","NAN","NAN"],
    [1670051,"2026-09-01 19:50:00","28263","3.6689999999999996","219.6","4.279","211.1","NAN","NAN","NAN","NAN","NAN"],
    [1670052,"2026-09-01 20:00:00","28264","3.6430000000000002","219.1","4.4430000000000005","225.2","NAN","NAN","NAN","NAN","NAN"],
    [1670053,"2026-09-01 20:10:00","28265","3.955","214.4","4.541","212.8","NAN","NAN","NAN","NAN","NAN"],
    [1670054,"2026-09-01 20:20:00","28266","3.733","209.5","4.345","212.8","NAN","NAN","NAN","NAN","NAN"],
    [1670055,"2026-09-01 20:30:00","28267","2.946","214.7","3.332","214.2","NAN","NAN","NAN","NAN","NAN"],
    [1670056,"2026-09-01 20:40:00","28268","3.2710000000000004","215.2","4.051","211.4","NAN","NAN","NAN","NAN","NAN"],
    [1670057,"2026-09-01 20:50:00","28269","3.463","210.9","3.9530000000000003","210.3","NAN","NAN","NAN","NAN","NAN"],
    [1670058,"2026-09-01 21:00:00","28270","3.498","212.7","3.822","209.6","NAN","NAN","NAN","NAN","NAN"],
    [1670059,"2026-09-01 21:10:00","28271","3.575","211.5","3.92","214.5","NAN","NAN","NAN","NAN","NAN"],
    [1670060,"2026-09-01 21:20:00","28272","3.484","211.1","3.7889999999999997","206.8","NAN","NAN","NAN","NAN","NAN"],
    [1670061,"2026-09-01 21:30:00","28273","3.273","214.5","3.7239999999999998","209.6","NAN","NAN","NAN","NAN","NAN"],
    [1670062,"2026-09-01 21:40:00","28274","3.488","218.3","4.1160000000000005","222.3","NAN","NAN","NAN","NAN","NAN"],
    [1670063,"2026-09-01 21:50:00","28275","2.693","231.3","3.299","229.3","NAN","NAN","NAN","NAN","NAN"],
    [1670064,"2026-09-01 22:00:00","28276","2.097","251.4","4.41","231.7","NAN","NAN","NAN","NAN","NAN"],
    [1670065,"2026-09-01 22:10:00","28277","1.788","266.6","2.417","260.8","NAN","NAN","NAN","NAN","NAN"],
    [1670066,"2026-09-01 22:20:00","28278","1.8219999999999998","261.2","2.515","251.6","NAN","NAN","NAN","NAN","NAN"],
    [1670067,"2026-09-01 22:30:00","28279","1.4","274.8","2.189","254.3","NAN","NAN","NAN","NAN","NAN"],
    [1670068,"2026-09-01 22:40:00","28280","1.445","266.2","1.9269999999999998","255.9","NAN","NAN","NAN","NAN","NAN"],
    [1670069,"2026-09-01 22:50:00","28281","1.7719999999999998","252.8","2.254","252.4","NAN","NAN","NAN","NAN","NAN"],
    [1670070,"2026-09-01 23:00:00","28282","1.787","262.4","2.221","246.9","NAN","NAN","NAN","NAN","NAN"],
    [1670071,"2026-09-01 23:10:00","28283","1.883","278.9","2.156","279.2","NAN","NAN","NAN","NAN","NAN"],
    [1670072,"2026-09-01 23:20:00","28284","1.768","267.1","1.993","270.6","NAN","NAN","NAN","NAN","NAN"],
    [1670073,"2026-09-01 23:30:00","28285","2.0580000000000003","280.7","2.319","282.9","NAN","NAN","NAN","NAN","NAN"],
    [1670074,"2026-09-01 23:40:00","28286","1.6909999999999998","269.7","2.221","280.3","NAN","NAN","NAN","NAN","NAN"],
    [1670075,"2026-09-01 23:50:00","28287","1.2","255.7","1.535","276.5","NAN","NAN","NAN","NAN","NAN"],
    [1670076,"2026-09-02 00:00:00","28288","1.624","261.3","1.895","269.0","NAN","NAN","NAN","NAN","NAN"],
    [1670077,"2026-09-02 00:10:00","28289","1.749","261.8","2.0580000000000003","267.8","NAN","NAN","NAN","NAN","NAN"],
    [1670078,"2026-09-02 00:20:00","28290","1.916","255.3","2.123","261.3","NAN","NAN","NAN","NAN","NAN"],
    [1670079,"2026-09-02 00:30:00","28291","1.83","258.4","2.189","265.9","NAN","NAN","NAN","NAN","NAN"],
    [1670080,"2026-09-02 00:40:00","28292","1.976","270.4","2.189","269.2","NAN","NAN","NAN","NAN","NAN"],
    [1670081,"2026-09-02 00:50:00","28293","1.617","276.7","1.8619999999999999","269.9","NAN","NAN","NAN","NAN","NAN"],
    [1670082,"2026-09-02 01:00:00","28294","1.645","295.5","1.895","298.6","NAN","NAN","NAN","NAN","NAN"],
    [1670083,"2026-09-02 01:10:00","28295","1.999","310.3","2.6460000000000004","307.6","NAN","NAN","NAN","NAN","NAN"],
    [1670084,"2026-09-02 01:20:00","28296","1.9480000000000002","308.3","2.221","321.2","NAN","NAN","NAN","NAN","NAN"],
    [1670085,"2026-09-02 01:30:00","28297","1.8730000000000002","302.8","2.189","301.7","NAN","NAN","NAN","NAN","NAN"],
    [1670086,"2026-09-02 01:40:00","28298","1.375","267.7","1.895","251.4","NAN","NAN","NAN","NAN","NAN"],
    [1670087,"2026-09-02 01:50:00","28299","1.9969999999999999","264.9","2.254","265.9","NAN","NAN","NAN","NAN","NAN"],
    [1670088,"2026-09-02 02:00:00","28300","1.895","274.7","2.156","277.0","NAN","NAN","NAN","NAN","NAN"],
    [1670089,"2026-09-02 02:10:00","28301","2.312","266.3","2.5810000000000004","266.6","NAN","NAN","NAN","NAN","NAN"],
    [1670090,"2026-09-02 02:20:00","28302","2.23","264.3","2.7110000000000003","264.3","NAN","NAN","NAN","NAN","NAN"],
    [1670091,"2026-09-02 02:30:00","28303","2.124","272.1","2.483","269.6","NAN","NAN","NAN","NAN","NAN"],
    [1670092,"2026-09-02 02:40:00","28304","1.305","269.4","1.764","289.3","NAN","NAN","NAN","NAN","NAN"],
    [1670093,"2026-09-02 02:50:00","28305","1.9040000000000001","275.8","2.45","275.8","NAN","NAN","NAN","NAN","NAN"],
    [1670094,"2026-09-02 03:00:00","28306","2.057","267.7","2.385","270.7","NAN","NAN","NAN","NAN","NAN"],
    [1670095,"2026-09-02 03:10:00","28307","2.338","264.9","2.94","262.2","NAN","NAN","NAN","NAN","NAN"],
    [1670096,"2026-09-02 03:20:00","28308","2.763","258.7","3.136","260.4","NAN","NAN","NAN","NAN","NAN"],
    [1670097,"2026-09-02 03:30:00","28309","2.6489999999999996","266.5","3.103","273.5","NAN","NAN","NAN","NAN","NAN"],
    [1670098,"2026-09-02 03:40:00","28310","2.713","267.5","3.201","270.9","NAN","NAN","NAN","NAN","NAN"],
    [1670099,"2026-09-02 03:50:00","28311","2.6839999999999997","269.8","3.299","272.1","NAN","NAN","NAN","NAN","NAN"],
    [1670100,"2026-09-02 04:00:00","28312","3.105","287.4","4.083","296.0","NAN","NAN","NAN","NAN","NAN"],
    [1670101,"2026-09-02 04:10:00","28313","3.5860000000000003","291.9","4.2139999999999995","297.4","NAN","NAN","NAN","NAN","NAN"],
    [1670102,"2026-09-02 04:20:00","28314","3.4189999999999996","291.3","4.051","286.4","NAN","NAN","NAN","NAN","NAN"],
    [1670103,"2026-09-02 04:30:00","28315","3.0380000000000003","292.6","3.9530000000000003","302.8","NAN","NAN","NAN","NAN","NAN"],
    [1670104,"2026-09-02 04:40:00","28316","2.582","281.5","3.201","281.7","NAN","NAN","NAN","NAN","NAN"],
    [1670105,"2026-09-02 04:50:00","28317","2.634","274.2","3.593","284.6","NAN","NAN","NAN","NAN","NAN"],
    [1670106,"2026-09-02 05:00:00","28318","2.7960000000000003","266.7","3.593","271.5","NAN","NAN","NAN","NAN","NAN"],
    [1670107,"2026-09-02 05:10:00","28319","3.2560000000000002","264.0","3.855","275.0","NAN","NAN","NAN","NAN","NAN"],
    [1670108,"2026-09-02 05:20:00","28320","3.1710000000000003","279.2","3.9530000000000003","283.6","NAN","NAN","NAN","NAN","NAN"],
    [1670109,"2026-09-02 05:30:00","28321","3.327","277.3","4.312","289.7","NAN","NAN","NAN","NAN","NAN"],
    [1670110,"2026-09-02 05:40:00","28322","3.998","279.0","5.292000000000001","295.2","NAN","NAN","NAN","NAN","NAN"],
    [1670111,"2026-09-02 05:50:00","28323","3.9130000000000003","276.6","4.998","284.0","NAN","NAN","NAN","NAN","NAN"],
    [1670112,"2026-09-02 06:00:00","28324","3.528","272.1","4.638999999999999","285.1","NAN","NAN","NAN","NAN","NAN"],
    [1670113,"2026-09-02 06:10:00","28325","3.2430000000000003","275.0","4.4430000000000005","276.1","NAN","NAN","NAN","NAN","NAN"],
    [1670114,"2026-09-02 06:20:00","28326","3.148","289.8","4.867","282.8","NAN","NAN","NAN","NAN","NAN"],
    [1670115,"2026-09-02 06:30:00","28327","4.457","265.4","5.586","268.1","NAN","NAN","NAN","NAN","NAN"],
    [1670116,"2026-09-02 06:40:00","28328","4.6930000000000005","273.0","5.586","285.6","NAN","NAN","NAN","NAN","NAN"],
    [1670117,"2026-09-02 06:50:00","28329","4.426","287.4","5.586","299.8","NAN","NAN","NAN","NAN","NAN"],
    [1670118,"2026-09-02 07:00:00","28330","3.736","294.3","4.638999999999999","290.6","NAN","NAN","NAN","NAN","NAN"],
    [1670119,"2026-09-02 07:10:00","28331","3.159","299.2","3.7239999999999998","314.0","NAN","NAN","NAN","NAN","NAN"],
    [1670120,"2026-09-02 07:20:00","28332","2.667","295.6","3.397","294.6","NAN","NAN","NAN","NAN","NAN"],
    [1670121,"2026-09-02 07:30:00","28333","1.43","308.6","2.548","287.3","NAN","NAN","NAN","NAN","NAN"],
    [1670122,"2026-09-02 07:40:00","28334","1.1520000000000001","344.0","1.9269999999999998","17.33","NAN","NAN","NAN","NAN","NAN"],
    [1670123,"2026-09-02 07:50:00","28335","1.307","47.63","1.993","25.34","NAN","NAN","NAN","NAN","NAN"],
    [1670124,"2026-09-02 08:00:00","28336","0.561","81.5","1.111","105.5","NAN","NAN","NAN","NAN","NAN"],
    [1670125,"2026-09-02 08:10:00","28337","0.513","129.2","0.98","114.8","NAN","NAN","NAN","NAN","NAN"],
    [1670126,"2026-09-02 08:20:00","28338","0.281","157.6","0.882","147.0","NAN","NAN","NAN","NAN","NAN"],
    [1670127,"2026-09-02 08:30:00","28339","0.0","0.0","0.0","0.0","NAN","NAN","NAN","NAN","NAN"],
    [1670128,"2026-09-02 08:40:00","28340","1.077","27.29","2.7110000000000003","22.24","NAN","NAN","NAN","NAN","NAN"],
    [1670129,"2026-09-02 08:50:00","28341","3.9530000000000003","34.37","4.802","38.0","NAN","NAN","NAN","NAN","NAN"],
    [1670130,"2026-09-02 09:00:00","28342","3.2689999999999997","45.16","4.4430000000000005","43.61","NAN","NAN","NAN","NAN","NAN"],
    [1670131,"2026-09-02 09:10:00","28343","2.986","43.46","4.083","39.23","NAN","NAN","NAN","NAN","NAN"],
    [1670132,"2026-09-02 09:20:00","28344","3.142","46.73","4.051","47.74","NAN","NAN","NAN","NAN","NAN"],
    [1670133,"2026-09-02 09:30:00","28345","2.8","48.21","3.463","44.73","NAN","NAN","NAN","NAN","NAN"],
    [1670134,"2026-09-02 09:40:00","28346","2.6910000000000003","48.95","3.463","49.65","NAN","NAN","NAN","NAN","NAN"],
    [1670135,"2026-09-02 09:50:00","28347","2.5869999999999997","53.59","3.659","43.41","NAN","NAN","NAN","NAN","NAN"],
    [1670136,"2026-09-02 10:00:00","28348","2.685","50.82","3.43","43.3","NAN","NAN","NAN","NAN","NAN"],
    [1670137,"2026-09-02 10:10:00","28349","2.488","54.38","3.463","48.57","NAN","NAN","NAN","NAN","NAN"],
    [1670138,"2026-09-02 10:20:00","28350","2.392","52.18","3.136","52.47","NAN","NAN","NAN","NAN","NAN"],
    [1670139,"2026-09-02 10:30:00","28351","2.311","53.03","3.071","54.66","NAN","NAN","NAN","NAN","NAN"],
    [1670140,"2026-09-02 10:40:00","28352","2.1790000000000003","54.17","2.8089999999999997","55.89","NAN","NAN","NAN","NAN","NAN"],
    [1670141,"2026-09-02 10:50:00","28353","2.013","74.32","2.7110000000000003","60.64","NAN","NAN","NAN","NAN","NAN"],
    [1670142,"2026-09-02 11:00:00","28354","2.199","74.23","2.7439999999999998","78.16","NAN","NAN","NAN","NAN","NAN"],
    [1670143,"2026-09-02 11:10:00","28355","2.117","90.1","2.875","99.4","NAN","NAN","NAN","NAN","NAN"],
    [1670144,"2026-09-02 11:20:00","28356","1.8119999999999998","108.0","2.548","105.3","NAN","NAN","NAN","NAN","NAN"],
    [1670145,"2026-09-02 11:30:00","28357","1.4580000000000002","120.6","2.45","115.4","NAN","NAN","NAN","NAN","NAN"],
    [1670146,"2026-09-02 11:40:00","28358","1.044","124.4","1.9269999999999998","119.4","NAN","NAN","NAN","NAN","NAN"],
    [1670147,"2026-09-02 11:50:00","28359","1.02","127.0","2.189","116.7","NAN","NAN","NAN","NAN","NAN"],
    [1670148,"2026-09-02 12:00:00","28360","1.046","125.2","2.9730000000000003","111.0","NAN","NAN","NAN","NAN","NAN"],
    [1670149,"2026-09-02 12:10:00","28361","1.4769999999999999","134.4","3.0380000000000003","124.9","NAN","NAN","NAN","NAN","NAN"],
    [1670150,"2026-09-02 12:20:00","28362","1.545","144.5","2.319","152.2","NAN","NAN","NAN","NAN","NAN"],
    [1670151,"2026-09-02 12:30:00","28363","2.144","150.8","2.907","160.2","NAN","NAN","NAN","NAN","NAN"],
    [1670152,"2026-09-02 12:40:00","28364","2.158","148.1","3.397","134.0","NAN","NAN","NAN","NAN","NAN"],
    [1670153,"2026-09-02 12:50:00","28365","2.151","148.6","2.907","133.2","NAN","NAN","NAN","NAN","NAN"],
    [1670154,"2026-09-02 13:00:00","28366","2.214","147.4","2.9730000000000003","154.8","NAN","NAN","NAN","NAN","NAN"],
    [1670155,"2026-09-02 13:10:00","28367","2.544","147.7","3.7889999999999997","134.5","NAN","NAN","NAN","NAN","NAN"],
    [1670156,"2026-09-02 13:20:00","28368","2.696","149.0","3.7569999999999997","150.0","NAN","NAN","NAN","NAN","NAN"],
    [1670157,"2026-09-02 13:30:00","28369","2.8689999999999998","150.1","3.7239999999999998","163.3","NAN","NAN","NAN","NAN","NAN"],
    [1670158,"2026-09-02 13:40:00","28370","3.537","160.1","4.933","169.7","NAN","NAN","NAN","NAN","NAN"],
    [1670159,"2026-09-02 13:50:00","28371","4.445","164.4","5.325","167.9","NAN","NAN","NAN","NAN","NAN"],
    [1670160,"2026-09-02 14:00:00","28372","3.898","169.2","4.4430000000000005","173.8","NAN","NAN","NAN","NAN","NAN"],
    [1670161,"2026-09-02 14:10:00","28373","3.8339999999999996","171.1","4.312","173.1","NAN","NAN","NAN","NAN","NAN"],
    [1670162,"2026-09-02 14:20:00","28374","3.397","171.2","3.887","175.1","NAN","NAN","NAN","NAN","NAN"],
    [1670163,"2026-09-02 14:30:00","28375","3.747","173.6","4.377","175.1","NAN","NAN","NAN","NAN","NAN"],
    [1670164,"2026-09-02 14:40:00","28376","3.625","176.7","4.377","178.9","NAN","NAN","NAN","NAN","NAN"],
    [1670165,"2026-09-02 14:50:00","28377","3.637","175.3","4.247","174.8","NAN","NAN","NAN","NAN","NAN"],
    [1670166,"2026-09-02 15:00:00","28378","3.235","176.4","4.051","179.8","NAN","NAN","NAN","NAN","NAN"],
    [1670167,"2026-09-02 15:10:00","28379","2.86","178.2","3.397","179.6","NAN","NAN","NAN","NAN","NAN"],
    [1670168,"2026-09-02 15:20:00","28380","2.4659999999999997","176.9","3.071","170.1","NAN","NAN","NAN","NAN","NAN"],
    [1670169,"2026-09-02 15:30:00","28381","2.463","175.4","2.7769999999999997","171.4","NAN","NAN","NAN","NAN","NAN"],
    [1670170,"2026-09-02 15:40:00","28382","2.251","170.6","2.613","173.8","NAN","NAN","NAN","NAN","NAN"],
    [1670171,"2026-09-02 15:50:00","28383","1.91","165.7","2.221","170.4","NAN","NAN","NAN","NAN","NAN"],
    [1670172,"2026-09-02 16:00:00","28384","1.9409999999999998","168.3","2.156","166.5","NAN","NAN","NAN","NAN","NAN"],
    [1670173,"2026-09-02 16:10:00","28385","2.093","175.3","2.352","173.9","NAN","NAN","NAN","NAN","NAN"],
    [1670174,"2026-09-02 16:20:00","28386","1.896","167.4","2.189","174.3","NAN","NAN","NAN","NAN","NAN"],
    [1670175,"2026-09-02 16:30:00","28387","1.817","165.7","2.417","161.1","NAN","NAN","NAN","NAN","NAN"],
    [1670176,"2026-09-02 16:40:00","28388","1.641","166.3","2.025","165.1","NAN","NAN","NAN","NAN","NAN"],
    [1670177,"2026-09-02 16:50:00","28389","1.8030000000000002","167.6","2.123","166.8","NAN","NAN","NAN","NAN","NAN"],
    [1670178,"2026-09-02 17:00:00","28390","1.235","170.6","1.8619999999999999","168.5","NAN","NAN","NAN","NAN","NAN"],
    [1670179,"2026-09-02 17:10:00","28391","1.156","159.9","1.535","152.2","NAN","NAN","NAN","NAN","NAN"],
    [1670180,"2026-09-02 17:20:00","28392","0.915","151.4","1.4369999999999998","150.5","NAN","NAN","NAN","NAN","NAN"],
    [1670181,"2026-09-02 17:30:00","28393","0.39","139.8","1.045","114.2","NAN","NAN","NAN","NAN","NAN"],
    [1670182,"2026-09-02 17:40:00","28394","0.568","110.5","0.882","107.1","NAN","NAN","NAN","NAN","NAN"],
    [1670183,"2026-09-02 17:50:00","28395","0.37","104.9","0.784","92.0","NAN","NAN","NAN","NAN","NAN"],
    [1670184,"2026-09-02 18:00:00","28396","0.306","126.6","0.784","119.5","NAN","NAN","NAN","NAN","NAN"],
    [1670185,"2026-09-02 18:10:00","28397","0.292","116.9","0.7190000000000001","123.7","NAN","NAN","NAN","NAN","NAN"],
    [1670186,"2026-09-02 18:20:00","28398","0.18100000000000002","148.1","0.882","159.9","NAN","NAN","NAN","NAN","NAN"],
    [1670187,"2026-09-02 18:30:00","28399","0.13699999999999998","131.3","0.7509999999999999","109.3","NAN","NAN","NAN","NAN","NAN"],
    [1670188,"2026-09-02 18:40:00","28400","0.0","0.0","0.0","0.0","NAN","NAN","NAN","NAN","NAN"],
    [1670189,"2026-09-02 18:50:00","28401","0.0","0.0","0.0","0.0","NAN","NAN","NAN","NAN","NAN"],
    [1670190,"2026-09-02 19:00:00","28402","0.0","0.0","0.0","0.0","NAN","NAN","NAN","NAN","NAN"],
    [1670191,"2026-09-02 19:10:00","28403","0.0","0.0","0.0","0.0","NAN","NAN","NAN","NAN","NAN"],
    [1670192,"2026-09-02 19:20:00","28404","0.337","93.4","0.7190000000000001","102.2","NAN","NAN","NAN","NAN","NAN"],
    [1670193,"2026-09-02 19:30:00","28405","1.061","73.68","1.601","57.66","NAN","NAN","NAN","NAN","NAN"],
    [1670194,"2026-09-02 19:40:00","28406","1.325","55.31","1.699","57.95","NAN","NAN","NAN","NAN","NAN"],
    [1670195,"2026-09-02 19:50:00","28407","1.381","55.58","1.764","62.28","NAN","NAN","NAN","NAN","NAN"],
    [1670196,"2026-09-02 20:00:00","28408","1.16","52.71","1.699","47.53","NAN","NAN","NAN","NAN","NAN"],
    [1670197,"2026-09-02 20:10:00","28409","0.685","47.26","1.307","54.33","NAN","NAN","NAN","NAN","NAN"],
    [1670198,"2026-09-02 20:20:00","28410","0.6990000000000001","53.48","0.98","44.85","NAN","NAN","NAN","NAN","NAN"],
    [1670199,"2026-09-02 20:30:00","28411","1.0979999999999999","12.84","1.3719999999999999","1.538","NAN","NAN","NAN","NAN","NAN"],
    [1670200,"2026-09-02 20:40:00","28412","1.186","1.53","1.5030000000000001","2.8169999999999997","NAN","NAN","NAN","NAN","NAN"],
    [1670201,"2026-09-02 20:50:00","28413","1.505","353.3","1.993","12.59","NAN","NAN","NAN","NAN","NAN"],
    [1670202,"2026-09-02 21:00:00","28414","0.792","297.2","1.3719999999999999","299.3","NAN","NAN","NAN","NAN","NAN"],
    [1670203,"2026-09-02 21:10:00","28415","0.7170000000000001","298.3","1.274","8.44","NAN","NAN","NAN","NAN","NAN"],
    [1670204,"2026-09-02 21:20:00","28416","0.111","339.0","0.8170000000000001","354.9","NAN","NAN","NAN","NAN","NAN"],
    [1670205,"2026-09-02 21:30:00","28417","1.18","290.8","2.189","278.1","NAN","NAN","NAN","NAN","NAN"],
    [1670206,"2026-09-02 21:40:00","28418","2.496","298.5","3.299","303.1","NAN","NAN","NAN","NAN","NAN"],
    [1670207,"2026-09-02 21:50:00","28419","2.501","316.9","3.103","316.2","NAN","NAN","NAN","NAN","NAN"],
    [1670208,"2026-09-02 22:00:00","28420","1.818","327.5","2.7110000000000003","322.4","NAN","NAN","NAN","NAN","NAN"],
    [1670209,"2026-09-02 22:10:00","28421","0.534","194.1","1.601","169.4","NAN","NAN","NAN","NAN","NAN"],
    [1670210,"2026-09-02 22:20:00","28422","1.229","182.0","1.8619999999999999","171.1","NAN","NAN","NAN","NAN","NAN"],
    [1670211,"2026-09-02 22:30:00","28423","0.5","184.8","1.4369999999999998","176.2","NAN","NAN","NAN","NAN","NAN"],
    [1670212,"2026-09-02 22:40:00","28424","0.326","122.2","0.9470000000000001","168.3","NAN","NAN","NAN","NAN","NAN"],
    [1670213,"2026-09-02 22:50:00","28425","0.449","176.6","1.045","160.3","NAN","NAN","NAN","NAN","NAN"],
    [1670214,"2026-09-02 23:00:00","28426","0.273","183.0","0.9470000000000001","172.6","NAN","NAN","NAN","NAN","NAN"],
    [1670215,"2026-09-02 23:10:00","28427","0.631","141.0","1.535","152.0","NAN","NAN","NAN","NAN","NAN"],
    [1670216,"2026-09-02 23:20:00","28428","1.416","150.0","2.025","142.2","NAN","NAN","NAN","NAN","NAN"],
    [1670217,"2026-09-02 23:30:00","28429","1.337","153.2","1.9269999999999998","141.7","NAN","NAN","NAN","NAN","NAN"],
    [1670218,"2026-09-02 23:40:00","28430","1.432","177.5","1.895","161.8","NAN","NAN","NAN","NAN","NAN"],
    [1670219,"2026-09-02 23:50:00","28431","1.6469999999999998","262.9","2.7110000000000003","270.7","NAN","NAN","NAN","NAN","NAN"],
    [1670220,"2026-09-03 00:00:00","28432","1.9880000000000002","286.0","2.613","274.1","NAN","NAN","NAN","NAN","NAN"],
    [1670221,"2026-09-03 00:10:00","28433","1.889","273.4","2.319","274.4","NAN","NAN","NAN","NAN","NAN"],
    [1670222,"2026-09-03 00:20:00","28434","2.051","266.9","2.45","270.3","NAN","NAN","NAN","NAN","NAN"],
    [1670223,"2026-09-03 00:30:00","28435","1.849","280.4","2.221","278.1","NAN","NAN","NAN","NAN","NAN"],
    [1670224,"2026-09-03 00:40:00","28436","1.344","266.3","1.568","279.7","NAN","NAN","NAN","NAN","NAN"],
    [1670225,"2026-09-03 00:50:00","28437","1.375","279.2","1.535","278.2","NAN","NAN","NAN","NAN","NAN"],
    [1670226,"2026-09-03 01:00:00","28438","1.817","267.2","2.156","263.7","NAN","NAN","NAN","NAN","NAN"],
    [1670227,"2026-09-03 01:10:00","28439","1.751","264.1","1.993","277.5","NAN","NAN","NAN","NAN","NAN"],
    [1670228,"2026-09-03 01:20:00","28440","1.9580000000000002","283.3","2.319","284.8","NAN","NAN","NAN","NAN","NAN"],
    [1670229,"2026-09-03 01:30:00","28441","1.9409999999999998","273.4","2.221","282.9","NAN","NAN","NAN","NAN","NAN"],
    [1670230,"2026-09-03 01:40:00","28442","1.6840000000000002","271.7","1.9269999999999998","281.1","NAN","NAN","NAN","NAN","NAN"],
    [1670231,"2026-09-03 01:50:00","28443","1.5859999999999999","272.6","1.895","268.2","NAN","NAN","NAN","NAN","NAN"],
    [1670232,"2026-09-03 02:00:00","28444","1.401","270.1","1.568","279.4","NAN","NAN","NAN","NAN","NAN"],
    [1670233,"2026-09-03 02:10:00","28445","1.535","274.9","1.666","275.2","NAN","NAN","NAN","NAN","NAN"],
    [1670234,"2026-09-03 02:20:00","28446","1.631","272.3","1.895","270.4","NAN","NAN","NAN","NAN","NAN"],
    [1670235,"2026-09-03 02:30:00","28447","1.953","271.0","2.254","269.1","NAN","NAN","NAN","NAN","NAN"],
    [1670236,"2026-09-03 02:40:00","28448","2.092","273.7","2.45","281.2","NAN","NAN","NAN","NAN","NAN"],
    [1670237,"2026-09-03 02:50:00","28449","1.9069999999999998","283.7","2.352","278.3","NAN","NAN","NAN","NAN","NAN"],
    [1670238,"2026-09-03 03:00:00","28450","1.456","283.3","1.666","290.1","NAN","NAN","NAN","NAN","NAN"],
    [1670239,"2026-09-03 03:10:00","28451","1.504","274.2","1.764","283.4","NAN","NAN","NAN","NAN","NAN"],
    [1670240,"2026-09-03 03:20:00","28452","1.4669999999999999","288.0","1.633","278.1","NAN","NAN","NAN","NAN","NAN"],
    [1670241,"2026-09-03 03:30:00","28453","1.245","276.4","1.4369999999999998","270.2","NAN","NAN","NAN","NAN","NAN"],
    [1670242,"2026-09-03 03:40:00","28454","1.714","276.4","2.287","272.6","NAN","NAN","NAN","NAN","NAN"],
    [1670243,"2026-09-03 03:50:00","28455","2.197","269.8","2.417","268.2","NAN","NAN","NAN","NAN","NAN"],
    [1670244,"2026-09-03 04:00:00","28456","2.3930000000000002","269.5","2.548","268.5","NAN","NAN","NAN","NAN","NAN"],
    [1670245,"2026-09-03 04:10:00","28457","2.577","268.6","2.907","271.7","NAN","NAN","NAN","NAN","NAN"],
    [1670246,"2026-09-03 04:20:00","28458","2.573","268.8","2.907","265.9","NAN","NAN","NAN","NAN","NAN"],
    [1670247,"2026-09-03 04:30:00","28459","2.54","270.8","2.9730000000000003","273.4","NAN","NAN","NAN","NAN","NAN"],
    [1670248,"2026-09-03 04:40:00","28460","2.616","269.7","2.94","271.4","NAN","NAN","NAN","NAN","NAN"],
    [1670249,"2026-09-03 04:50:00","28461","2.623","267.1","3.0380000000000003","272.5","NAN","NAN","NAN","NAN","NAN"],
    [1670250,"2026-09-03 05:00:00","28462","2.4730000000000003","267.5","2.842","269.2","NAN","NAN","NAN","NAN","NAN"],
    [1670251,"2026-09-03 05:10:00","28463","2.521","266.8","2.875","272.5","NAN","NAN","NAN","NAN","NAN"],
    [1670252,"2026-09-03 05:20:00","28464","2.62","268.2","3.0380000000000003","270.3","NAN","NAN","NAN","NAN","NAN"],
    [1670253,"2026-09-03 05:30:00","28465","2.5980000000000003","275.8","2.875","280.9","NAN","NAN","NAN","NAN","NAN"],
    [1670254,"2026-09-03 05:40:00","28466","2.54","274.7","2.875","280.5","NAN","NAN","NAN","NAN","NAN"],
    [1670255,"2026-09-03 05:50:00","28467","2.242","273.4","2.483","274.4","NAN","NAN","NAN","NAN","NAN"],
    [1670256,"2026-09-03 06:00:00","28468","1.996","275.8","2.319","273.6","NAN","NAN","NAN","NAN","NAN"],
    [1670257,"2026-09-03 06:10:00","28469","2.3209999999999997","269.1","2.8089999999999997","266.7","NAN","NAN","NAN","NAN","NAN"],
    [1670258,"2026-09-03 06:20:00","28470","2.491","270.1","2.8089999999999997","269.2","NAN","NAN","NAN","NAN","NAN"],
    [1670259,"2026-09-03 06:30:00","28471","2.783","268.8","3.201","263.2","NAN","NAN","NAN","NAN","NAN"],
    [1670260,"2026-09-03 06:40:00","28472","2.8789999999999996","271.0","3.234","280.5","NAN","NAN","NAN","NAN","NAN"],
    [1670261,"2026-09-03 06:50:00","28473","2.7960000000000003","272.9","3.659","279.9","NAN","NAN","NAN","NAN","NAN"],
    [1670262,"2026-09-03 07:00:00","28474","2.4290000000000003","273.6","2.94","270.6","NAN","NAN","NAN","NAN","NAN"],
    [1670263,"2026-09-03 07:10:00","28475","2.21","283.9","2.7439999999999998","274.3","NAN","NAN","NAN","NAN","NAN"],
    [1670264,"2026-09-03 07:20:00","28476","2.148","298.4","2.613","293.9","NAN","NAN","NAN","NAN","NAN"],
    [1670265,"2026-09-03 07:30:00","28477","1.79","302.6","2.417","300.0","NAN","NAN","NAN","NAN","NAN"],
    [1670266,"2026-09-03 07:40:00","28478","1.232","289.9","1.764","305.6","NAN","NAN","NAN","NAN","NAN"],
    [1670267,"2026-09-03 07:50:00","28479","0.29","277.3","1.176","291.2","NAN","NAN","NAN","NAN","NAN"],
    [1670268,"2026-09-03 08:00:00","28480","0.28","155.3","0.8170000000000001","159.6","NAN","NAN","NAN","NAN","NAN"],
    [1670269,"2026-09-03 08:10:00","28481","0.177","154.4","0.621","149.0","NAN","NAN","NAN","NAN","NAN"],
    [1670270,"2026-09-03 08:20:00","28482","0.235","91.2","1.078","98.9","NAN","NAN","NAN","NAN","NAN"],
    [1670271,"2026-09-03 08:30:00","28483","1.056","99.6","1.699","94.4","NAN","NAN","NAN","NAN","NAN"]
]}
